sensor_id;sensor_type;location;lat;lon;timestamp;pressure;altitude;pressure_sealevel;temperature;humidity
52469;BME280;38381;53.688;10.776;2023-08-01T00:01:15;99417.25;;;15.74;100.00
52469;BME280;38381;53.688;10.776;2023-08-01T00:06:16;99407.44;;;15.81;100.00
52469;BME280;38381;53.688;10.776;2023-08-01T00:11:16;99398.72;;;15.80;100.00
52469;BME280;38381;53.688;10.776;2023-08-01T00:16:16;99397.63;;;15.87;100.00
52469;BME280;38381;53.688;10.776;2023-08-01T00:21:17;99387.88;;;15.91;100.00
52469;BME280;38381;53.688;10.776;2023-08-01T00:26:17;99377.41;;;15.91;100.00
52469;BME280;38381;53.688;10.776;2023-08-01T00:31:18;99374.47;;;16.00;100.00
52469;BME280;38381;53.688;10.776;2023-08-01T00:36:18;99372.03;;;15.96;100.00
52469;BME280;38381;53.688;10.776;2023-08-01T00:41:18;99367.59;;;15.98;100.00
52469;BME280;38381;53.688;10.776;2023-08-01T00:46:19;99352.00;;;15.95;100.00
52469;BME280;38381;53.688;10.776;2023-08-01T00:51:19;99333.44;;;16.24;100.00
52469;BME280;38381;53.688;10.776;2023-08-01T00:56:20;99331.66;;;16.25;100.00
52469;BME280;38381;53.688;10.776;2023-08-01T01:01:20;99319.59;;;15.99;100.00
52469;BME280;38381;53.688;10.776;2023-08-01T01:11:24;99313.00;;;16.12;100.00
52469;BME280;38381;53.688;10.776;2023-08-01T01:16:25;99300.41;;;16.00;100.00
52469;BME280;38381;53.688;10.776;2023-08-01T01:21:25;99303.38;;;15.91;100.00
52469;BME280;38381;53.688;10.776;2023-08-01T01:26:26;99288.75;;;15.85;100.00
52469;BME280;38381;53.688;10.776;2023-08-01T01:31:27;99271.72;;;15.75;100.00
52469;BME280;38381;53.688;10.776;2023-08-01T01:36:28;99262.44;;;15.66;100.00
52469;BME280;38381;53.688;10.776;2023-08-01T01:41:29;99271.81;;;15.73;100.00
52469;BME280;38381;53.688;10.776;2023-08-01T01:46:29;99263.84;;;15.76;100.00
52469;BME280;38381;53.688;10.776;2023-08-01T01:51:30;99259.59;;;15.74;100.00
52469;BME280;38381;53.688;10.776;2023-08-01T01:56:30;99259.06;;;15.87;100.00
52469;BME280;38381;53.688;10.776;2023-08-01T02:01:31;99245.75;;;15.70;100.00
52469;BME280;38381;53.688;10.776;2023-08-01T02:06:31;99244.84;;;15.71;100.00
52469;BME280;38381;53.688;10.776;2023-08-01T02:11:31;99246.78;;;15.66;100.00
52469;BME280;38381;53.688;10.776;2023-08-01T02:16:32;99237.63;;;15.54;100.00
52469;BME280;38381;53.688;10.776;2023-08-01T02:21:32;99228.06;;;15.55;100.00
52469;BME280;38381;53.688;10.776;2023-08-01T02:26:33;99223.84;;;15.74;100.00
52469;BME280;38381;53.688;10.776;2023-08-01T02:31:33;99216.09;;;15.71;100.00
52469;BME280;38381;53.688;10.776;2023-08-01T02:36:34;99210.19;;;15.66;100.00
52469;BME280;38381;53.688;10.776;2023-08-01T02:41:34;99216.69;;;15.79;100.00
52469;BME280;38381;53.688;10.776;2023-08-01T02:46:35;99207.81;;;15.83;100.00
52469;BME280;38381;53.688;10.776;2023-08-01T02:51:36;99202.06;;;15.96;100.00
52469;BME280;38381;53.688;10.776;2023-08-01T02:56:36;99207.47;;;15.91;100.00
52469;BME280;38381;53.688;10.776;2023-08-01T03:01:41;99211.75;;;15.94;100.00
52469;BME280;38381;53.688;10.776;2023-08-01T03:06:41;99210.53;;;15.80;100.00
52469;BME280;38381;53.688;10.776;2023-08-01T03:11:42;99201.78;;;15.81;100.00
52469;BME280;38381;53.688;10.776;2023-08-01T03:16:42;99200.13;;;15.79;100.00
52469;BME280;38381;53.688;10.776;2023-08-01T03:21:43;99192.53;;;15.73;100.00
52469;BME280;38381;53.688;10.776;2023-08-01T03:26:43;99191.50;;;15.77;100.00
52469;BME280;38381;53.688;10.776;2023-08-01T03:31:43;99180.69;;;15.86;100.00
52469;BME280;38381;53.688;10.776;2023-08-01T03:36:44;99184.19;;;15.63;100.00
52469;BME280;38381;53.688;10.776;2023-08-01T03:41:45;99172.84;;;15.62;100.00
52469;BME280;38381;53.688;10.776;2023-08-01T03:46:45;99165.03;;;15.62;100.00
52469;BME280;38381;53.688;10.776;2023-08-01T03:51:47;99159.69;;;15.65;100.00
52469;BME280;38381;53.688;10.776;2023-08-01T03:56:48;99157.81;;;15.69;100.00
52469;BME280;38381;53.688;10.776;2023-08-01T04:01:48;99156.81;;;15.72;100.00
52469;BME280;38381;53.688;10.776;2023-08-01T04:06:49;99152.56;;;15.91;100.00
52469;BME280;38381;53.688;10.776;2023-08-01T04:11:49;99144.53;;;15.75;100.00
52469;BME280;38381;53.688;10.776;2023-08-01T04:16:50;99150.19;;;15.85;100.00
52469;BME280;38381;53.688;10.776;2023-08-01T04:21:50;99147.84;;;15.79;100.00
52469;BME280;38381;53.688;10.776;2023-08-01T04:26:51;99141.16;;;15.72;100.00
52469;BME280;38381;53.688;10.776;2023-08-01T04:31:52;99140.22;;;15.95;100.00
52469;BME280;38381;53.688;10.776;2023-08-01T04:36:52;99135.13;;;15.92;100.00
52469;BME280;38381;53.688;10.776;2023-08-01T04:41:53;99142.97;;;15.69;100.00
52469;BME280;38381;53.688;10.776;2023-08-01T04:46:53;99147.00;;;15.78;100.00
52469;BME280;38381;53.688;10.776;2023-08-01T04:51:54;99146.16;;;15.78;100.00
52469;BME280;38381;53.688;10.776;2023-08-01T04:56:54;99129.22;;;15.86;100.00
52469;BME280;38381;53.688;10.776;2023-08-01T05:01:54;99134.34;;;15.89;100.00
52469;BME280;38381;53.688;10.776;2023-08-01T05:06:55;99134.09;;;15.96;100.00
52469;BME280;38381;53.688;10.776;2023-08-01T05:11:55;99131.81;;;16.08;100.00
52469;BME280;38381;53.688;10.776;2023-08-01T05:16:56;99135.00;;;16.15;100.00
52469;BME280;38381;53.688;10.776;2023-08-01T05:21:56;99128.53;;;16.24;100.00
52469;BME280;38381;53.688;10.776;2023-08-01T05:26:57;99125.72;;;16.08;100.00
52469;BME280;38381;53.688;10.776;2023-08-01T05:31:57;99128.97;;;16.34;100.00
52469;BME280;38381;53.688;10.776;2023-08-01T05:36:58;99126.81;;;16.43;100.00
52469;BME280;38381;53.688;10.776;2023-08-01T05:41:58;99123.94;;;16.49;100.00
52469;BME280;38381;53.688;10.776;2023-08-01T05:46:59;99130.16;;;16.47;100.00
52469;BME280;38381;53.688;10.776;2023-08-01T05:51:59;99132.44;;;16.34;100.00
52469;BME280;38381;53.688;10.776;2023-08-01T05:56:59;99126.63;;;16.48;100.00
52469;BME280;38381;53.688;10.776;2023-08-01T06:02:00;99136.41;;;16.63;100.00
52469;BME280;38381;53.688;10.776;2023-08-01T06:07:00;99133.91;;;16.81;100.00
52469;BME280;38381;53.688;10.776;2023-08-01T06:12:01;99141.97;;;16.95;100.00
52469;BME280;38381;53.688;10.776;2023-08-01T06:17:01;99128.84;;;16.76;100.00
52469;BME280;38381;53.688;10.776;2023-08-01T06:22:01;99123.53;;;16.98;100.00
52469;BME280;38381;53.688;10.776;2023-08-01T06:27:02;99118.50;;;17.13;98.93
52469;BME280;38381;53.688;10.776;2023-08-01T06:32:03;99128.09;;;17.12;98.66
52469;BME280;38381;53.688;10.776;2023-08-01T06:37:03;99114.22;;;17.10;98.66
52469;BME280;38381;53.688;10.776;2023-08-01T06:42:04;99122.47;;;17.02;99.00
52469;BME280;38381;53.688;10.776;2023-08-01T06:47:05;99124.34;;;17.18;97.24
52469;BME280;38381;53.688;10.776;2023-08-01T06:52:05;99127.84;;;16.99;96.42
52469;BME280;38381;53.688;10.776;2023-08-01T06:57:07;99129.38;;;17.03;95.64
52469;BME280;38381;53.688;10.776;2023-08-01T07:02:07;99134.13;;;16.95;94.59
52469;BME280;38381;53.688;10.776;2023-08-01T07:07:09;99133.44;;;17.11;93.70
52469;BME280;38381;53.688;10.776;2023-08-01T07:12:09;99131.78;;;17.08;94.97
52469;BME280;38381;53.688;10.776;2023-08-01T07:17:09;99142.69;;;17.18;94.40
52469;BME280;38381;53.688;10.776;2023-08-01T07:22:10;99140.78;;;17.21;94.28
52469;BME280;38381;53.688;10.776;2023-08-01T07:27:10;99136.16;;;17.26;94.70
52469;BME280;38381;53.688;10.776;2023-08-01T07:32:12;99130.66;;;17.14;94.33
52469;BME280;38381;53.688;10.776;2023-08-01T07:37:12;99137.44;;;17.37;94.31
52469;BME280;38381;53.688;10.776;2023-08-01T07:42:13;99134.03;;;17.35;94.79
52469;BME280;38381;53.688;10.776;2023-08-01T07:47:13;99136.28;;;17.42;94.29
52469;BME280;38381;53.688;10.776;2023-08-01T07:52:13;99145.16;;;17.40;93.88
52469;BME280;38381;53.688;10.776;2023-08-01T07:57:14;99148.03;;;17.53;93.82
52469;BME280;38381;53.688;10.776;2023-08-01T08:02:14;99143.50;;;17.56;94.01
52469;BME280;38381;53.688;10.776;2023-08-01T08:07:15;99145.59;;;17.67;91.64
52469;BME280;38381;53.688;10.776;2023-08-01T08:12:15;99152.56;;;17.68;90.87
52469;BME280;38381;53.688;10.776;2023-08-01T08:17:15;99147.00;;;17.74;91.18
52469;BME280;38381;53.688;10.776;2023-08-01T08:22:16;99152.38;;;17.71;91.15
52469;BME280;38381;53.688;10.776;2023-08-01T08:27:16;99156.22;;;17.83;88.96
52469;BME280;38381;53.688;10.776;2023-08-01T08:32:17;99150.50;;;17.92;88.15
52469;BME280;38381;53.688;10.776;2023-08-01T08:37:17;99144.97;;;17.98;88.05
52469;BME280;38381;53.688;10.776;2023-08-01T08:42:18;99152.31;;;18.09;89.01
52469;BME280;38381;53.688;10.776;2023-08-01T08:47:25;99151.22;;;18.13;87.77
52469;BME280;38381;53.688;10.776;2023-08-01T08:52:27;99162.34;;;18.36;84.49
52469;BME280;38381;53.688;10.776;2023-08-01T08:57:29;99156.78;;;18.24;85.25
52469;BME280;38381;53.688;10.776;2023-08-01T09:02:32;99161.59;;;18.49;84.41
52469;BME280;38381;53.688;10.776;2023-08-01T09:07:33;99173.75;;;18.52;83.51
52469;BME280;38381;53.688;10.776;2023-08-01T09:12:36;99163.41;;;18.82;82.80
52469;BME280;38381;53.688;10.776;2023-08-01T09:17:47;99161.72;;;18.81;80.33
52469;BME280;38381;53.688;10.776;2023-08-01T09:22:48;99161.09;;;18.94;80.53
52469;BME280;38381;53.688;10.776;2023-08-01T09:27:48;99158.38;;;18.95;79.80
52469;BME280;38381;53.688;10.776;2023-08-01T09:32:55;99145.00;;;19.00;78.80
52469;BME280;38381;53.688;10.776;2023-08-01T09:37:59;99149.22;;;19.02;80.41
52469;BME280;38381;53.688;10.776;2023-08-01T09:43:01;99152.03;;;19.15;79.79
52469;BME280;38381;53.688;10.776;2023-08-01T09:48:01;99149.84;;;19.07;77.23
52469;BME280;38381;53.688;10.776;2023-08-01T09:53:09;99140.00;;;18.95;78.17
52469;BME280;38381;53.688;10.776;2023-08-01T09:58:10;99139.84;;;19.30;79.15
52469;BME280;38381;53.688;10.776;2023-08-01T10:03:12;99133.94;;;19.73;75.67
52469;BME280;38381;53.688;10.776;2023-08-01T10:08:13;99123.97;;;19.94;74.43
52469;BME280;38381;53.688;10.776;2023-08-01T10:13:14;99118.56;;;20.11;72.43
52469;BME280;38381;53.688;10.776;2023-08-01T10:18:16;99110.94;;;20.06;71.71
52469;BME280;38381;53.688;10.776;2023-08-01T10:23:17;99119.03;;;19.73;73.40
52469;BME280;38381;53.688;10.776;2023-08-01T10:28:18;99115.84;;;19.82;75.44
52469;BME280;38381;53.688;10.776;2023-08-01T10:33:19;99118.03;;;20.20;74.87
52469;BME280;38381;53.688;10.776;2023-08-01T10:38:19;99131.97;;;19.92;74.09
52469;BME280;38381;53.688;10.776;2023-08-01T10:43:21;99131.38;;;19.87;74.31
52469;BME280;38381;53.688;10.776;2023-08-01T10:48:22;99135.84;;;19.55;73.70
52469;BME280;38381;53.688;10.776;2023-08-01T10:53:22;99140.69;;;19.46;76.45
52469;BME280;38381;53.688;10.776;2023-08-01T10:58:26;99141.66;;;19.60;75.93
52469;BME280;38381;53.688;10.776;2023-08-01T11:03:38;99138.09;;;19.77;73.85
52469;BME280;38381;53.688;10.776;2023-08-01T11:08:40;99136.50;;;20.04;72.99
52469;BME280;38381;53.688;10.776;2023-08-01T11:13:50;99136.91;;;20.13;70.36
52469;BME280;38381;53.688;10.776;2023-08-01T11:18:51;99143.00;;;20.13;69.43
52469;BME280;38381;53.688;10.776;2023-08-01T11:23:51;99145.66;;;20.27;68.72
52469;BME280;38381;53.688;10.776;2023-08-01T11:28:52;99145.22;;;20.49;68.10
52469;BME280;38381;53.688;10.776;2023-08-01T11:33:56;99152.34;;;20.92;67.21
52469;BME280;38381;53.688;10.776;2023-08-01T11:38:58;99144.59;;;20.75;65.71
52469;BME280;38381;53.688;10.776;2023-08-01T11:44:03;99140.16;;;20.89;67.02
52469;BME280;38381;53.688;10.776;2023-08-01T11:49:14;99144.53;;;20.76;66.68
52469;BME280;38381;53.688;10.776;2023-08-01T11:54:15;99149.50;;;20.66;68.91
52469;BME280;38381;53.688;10.776;2023-08-01T11:59:16;99167.44;;;20.15;67.54
52469;BME280;38381;53.688;10.776;2023-08-01T12:04:24;99205.56;;;19.78;70.18
52469;BME280;38381;53.688;10.776;2023-08-01T12:15:19;99211.53;;;19.16;73.97
52469;BME280;38381;53.688;10.776;2023-08-01T12:20:40;99246.75;;;18.96;75.85
52469;BME280;38381;53.688;10.776;2023-08-01T12:26:18;99235.94;;;18.67;77.03
52469;BME280;38381;53.688;10.776;2023-08-01T12:31:20;99248.00;;;18.19;78.87
52469;BME280;38381;53.688;10.776;2023-08-01T12:36:21;99256.53;;;18.05;78.89
52469;BME280;38381;53.688;10.776;2023-08-01T12:41:21;99262.22;;;17.77;79.24
52469;BME280;38381;53.688;10.776;2023-08-01T12:46:22;99261.81;;;17.48;79.52
52469;BME280;38381;53.688;10.776;2023-08-01T12:51:22;99281.03;;;17.68;80.30
52469;BME280;38381;53.688;10.776;2023-08-01T12:56:23;99285.44;;;17.28;80.64
52469;BME280;38381;53.688;10.776;2023-08-01T13:01:23;99278.31;;;17.32;81.76
52469;BME280;38381;53.688;10.776;2023-08-01T13:06:24;99279.25;;;17.49;82.94
52469;BME280;38381;53.688;10.776;2023-08-01T13:11:24;99284.63;;;17.46;83.92
52469;BME280;38381;53.688;10.776;2023-08-01T13:16:25;99271.09;;;17.56;84.46
52469;BME280;38381;53.688;10.776;2023-08-01T13:21:26;99272.72;;;17.58;81.45
52469;BME280;38381;53.688;10.776;2023-08-01T13:26:26;99271.94;;;17.56;82.78
52469;BME280;38381;53.688;10.776;2023-08-01T13:31:31;99266.47;;;17.61;81.79
52469;BME280;38381;53.688;10.776;2023-08-01T13:36:32;99264.03;;;17.58;82.19
52469;BME280;38381;53.688;10.776;2023-08-01T13:41:33;99263.81;;;17.62;82.49
52469;BME280;38381;53.688;10.776;2023-08-01T13:46:33;99256.06;;;17.78;82.59
52469;BME280;38381;53.688;10.776;2023-08-01T13:51:34;99263.16;;;17.95;83.66
52469;BME280;38381;53.688;10.776;2023-08-01T13:56:37;99259.22;;;18.04;83.24
52469;BME280;38381;53.688;10.776;2023-08-01T14:01:41;99260.50;;;18.14;83.08
52469;BME280;38381;53.688;10.776;2023-08-01T14:06:42;99260.19;;;18.20;83.07
52469;BME280;38381;53.688;10.776;2023-08-01T14:11:42;99249.84;;;18.17;83.09
52469;BME280;38381;53.688;10.776;2023-08-01T14:16:43;99251.72;;;18.33;83.44
52469;BME280;38381;53.688;10.776;2023-08-01T14:21:44;99267.09;;;18.40;82.78
52469;BME280;38381;53.688;10.776;2023-08-01T14:26:44;99273.50;;;18.52;83.71
52469;BME280;38381;53.688;10.776;2023-08-01T14:31:45;99275.72;;;18.42;82.12
52469;BME280;38381;53.688;10.776;2023-08-01T14:36:45;99276.97;;;18.53;82.04
52469;BME280;38381;53.688;10.776;2023-08-01T14:41:53;99280.31;;;18.56;82.47
52469;BME280;38381;53.688;10.776;2023-08-01T14:46:54;99276.03;;;18.71;81.62
52469;BME280;38381;53.688;10.776;2023-08-01T14:51:55;99275.44;;;18.83;79.89
52469;BME280;38381;53.688;10.776;2023-08-01T14:56:56;99284.06;;;18.68;78.65
52469;BME280;38381;53.688;10.776;2023-08-01T15:01:59;99296.66;;;18.61;79.11
52469;BME280;38381;53.688;10.776;2023-08-01T15:07:01;99304.16;;;18.69;79.23
52469;BME280;38381;53.688;10.776;2023-08-01T15:12:01;99315.75;;;18.65;79.48
52469;BME280;38381;53.688;10.776;2023-08-01T15:17:02;99309.44;;;18.86;79.92
52469;BME280;38381;53.688;10.776;2023-08-01T15:22:02;99309.78;;;18.61;80.89
52469;BME280;38381;53.688;10.776;2023-08-01T15:27:03;99307.72;;;19.03;80.40
52469;BME280;38381;53.688;10.776;2023-08-01T15:32:04;99309.38;;;19.21;80.20
52469;BME280;38381;53.688;10.776;2023-08-01T15:37:12;99317.03;;;19.26;79.65
52469;BME280;38381;53.688;10.776;2023-08-01T15:42:13;99323.06;;;19.28;80.16
52469;BME280;38381;53.688;10.776;2023-08-01T15:47:13;99318.34;;;19.35;79.86
52469;BME280;38381;53.688;10.776;2023-08-01T15:52:13;99314.13;;;19.64;78.29
52469;BME280;38381;53.688;10.776;2023-08-01T15:57:14;99324.41;;;19.53;77.05
52469;BME280;38381;53.688;10.776;2023-08-01T16:02:15;99334.47;;;19.60;75.65
52469;BME280;38381;53.688;10.776;2023-08-01T16:07:15;99349.22;;;19.47;75.25
52469;BME280;38381;53.688;10.776;2023-08-01T16:12:16;99339.19;;;19.38;73.67
52469;BME280;38381;53.688;10.776;2023-08-01T16:17:16;99343.72;;;19.18;74.20
52469;BME280;38381;53.688;10.776;2023-08-01T16:22:17;99352.69;;;19.14;74.58
52469;BME280;38381;53.688;10.776;2023-08-01T16:27:17;99348.19;;;18.99;75.94
52469;BME280;38381;53.688;10.776;2023-08-01T16:32:17;99345.28;;;18.87;76.61
52469;BME280;38381;53.688;10.776;2023-08-01T16:37:20;99356.81;;;18.66;76.71
52469;BME280;38381;53.688;10.776;2023-08-01T16:42:43;99358.13;;;18.57;76.79
52469;BME280;38381;53.688;10.776;2023-08-01T16:47:44;99371.31;;;18.56;76.52
52469;BME280;38381;53.688;10.776;2023-08-01T16:52:47;99369.81;;;18.69;77.34
52469;BME280;38381;53.688;10.776;2023-08-01T16:57:48;99359.69;;;18.61;78.66
52469;BME280;38381;53.688;10.776;2023-08-01T17:02:48;99362.16;;;18.64;77.62
52469;BME280;38381;53.688;10.776;2023-08-01T17:07:49;99365.22;;;18.55;77.30
52469;BME280;38381;53.688;10.776;2023-08-01T17:12:49;99362.91;;;18.49;77.53
52469;BME280;38381;53.688;10.776;2023-08-01T17:17:57;99370.94;;;18.46;77.41
52469;BME280;38381;53.688;10.776;2023-08-01T17:22:57;99380.16;;;18.72;76.98
52469;BME280;38381;53.688;10.776;2023-08-01T17:27:57;99373.88;;;18.57;76.81
52469;BME280;38381;53.688;10.776;2023-08-01T17:32:58;99384.03;;;18.65;77.17
52469;BME280;38381;53.688;10.776;2023-08-01T17:37:59;99383.00;;;18.67;77.17
52469;BME280;38381;53.688;10.776;2023-08-01T17:42:59;99389.56;;;18.59;76.92
52469;BME280;38381;53.688;10.776;2023-08-01T17:48:01;99395.25;;;18.49;77.86
52469;BME280;38381;53.688;10.776;2023-08-01T17:53:01;99400.59;;;18.29;78.68
52469;BME280;38381;53.688;10.776;2023-08-01T17:58:02;99406.13;;;18.42;79.39
52469;BME280;38381;53.688;10.776;2023-08-01T18:03:02;99408.47;;;18.48;79.49
52469;BME280;38381;53.688;10.776;2023-08-01T18:08:03;99406.72;;;18.10;80.02
52469;BME280;38381;53.688;10.776;2023-08-01T18:13:04;99413.88;;;18.26;79.80
52469;BME280;38381;53.688;10.776;2023-08-01T18:18:08;99412.06;;;18.09;80.08
52469;BME280;38381;53.688;10.776;2023-08-01T18:23:08;99415.06;;;18.19;79.72
52469;BME280;38381;53.688;10.776;2023-08-01T18:28:08;99409.53;;;18.25;80.13
52469;BME280;38381;53.688;10.776;2023-08-01T18:33:10;99416.28;;;17.93;82.46
52469;BME280;38381;53.688;10.776;2023-08-01T18:38:11;99426.56;;;17.97;82.92
52469;BME280;38381;53.688;10.776;2023-08-01T18:43:19;99421.88;;;18.04;83.36
52469;BME280;38381;53.688;10.776;2023-08-01T18:48:19;99426.00;;;17.91;84.41
52469;BME280;38381;53.688;10.776;2023-08-01T18:53:21;99438.53;;;17.63;86.53
52469;BME280;38381;53.688;10.776;2023-08-01T18:58:21;99434.53;;;17.34;87.62
52469;BME280;38381;53.688;10.776;2023-08-01T19:03:22;99446.47;;;17.41;85.85
52469;BME280;38381;53.688;10.776;2023-08-01T19:08:22;99450.28;;;17.34;85.59
52469;BME280;38381;53.688;10.776;2023-08-01T19:13:23;99453.94;;;17.30;84.70
52469;BME280;38381;53.688;10.776;2023-08-01T19:18:23;99466.72;;;17.17;85.36
52469;BME280;38381;53.688;10.776;2023-08-01T19:23:24;99470.16;;;17.18;85.29
52469;BME280;38381;53.688;10.776;2023-08-01T19:28:24;99467.25;;;17.25;84.42
52469;BME280;38381;53.688;10.776;2023-08-01T19:33:24;99474.63;;;17.16;84.47
52469;BME280;38381;53.688;10.776;2023-08-01T19:38:25;99477.16;;;16.97;85.45
52469;BME280;38381;53.688;10.776;2023-08-01T19:43:26;99480.75;;;16.70;87.20
52469;BME280;38381;53.688;10.776;2023-08-01T19:48:27;99490.50;;;16.67;87.32
52469;BME280;38381;53.688;10.776;2023-08-01T19:53:27;99492.97;;;16.48;88.51
52469;BME280;38381;53.688;10.776;2023-08-01T19:58:28;99503.59;;;16.45;88.21
52469;BME280;38381;53.688;10.776;2023-08-01T20:03:31;99500.03;;;16.46;88.45
52469;BME280;38381;53.688;10.776;2023-08-01T20:08:32;99496.63;;;16.44;88.16
52469;BME280;38381;53.688;10.776;2023-08-01T20:13:33;99512.69;;;16.35;88.84
52469;BME280;38381;53.688;10.776;2023-08-01T20:18:33;99520.84;;;16.25;89.57
52469;BME280;38381;53.688;10.776;2023-08-01T20:23:35;99529.84;;;16.18;89.76
52469;BME280;38381;53.688;10.776;2023-08-01T20:28:35;99531.91;;;16.34;89.04
52469;BME280;38381;53.688;10.776;2023-08-01T20:33:35;99527.13;;;16.21;90.11
52469;BME280;38381;53.688;10.776;2023-08-01T20:38:36;99532.25;;;16.24;90.25
52469;BME280;38381;53.688;10.776;2023-08-01T20:43:36;99532.91;;;16.29;90.39
52469;BME280;38381;53.688;10.776;2023-08-01T20:48:37;99538.06;;;16.07;91.15
52469;BME280;38381;53.688;10.776;2023-08-01T20:53:37;99531.56;;;16.19;91.24
52469;BME280;38381;53.688;10.776;2023-08-01T20:58:38;99532.56;;;16.15;91.58
52469;BME280;38381;53.688;10.776;2023-08-01T21:03:45;99527.06;;;16.23;91.66
52469;BME280;38381;53.688;10.776;2023-08-01T21:08:45;99533.50;;;16.14;92.39
52469;BME280;38381;53.688;10.776;2023-08-01T21:13:46;99527.91;;;16.00;92.66
52469;BME280;38381;53.688;10.776;2023-08-01T21:18:47;99525.59;;;15.91;93.21
52469;BME280;38381;53.688;10.776;2023-08-01T21:23:48;99533.34;;;15.94;92.82
52469;BME280;38381;53.688;10.776;2023-08-01T21:28:48;99532.59;;;15.90;91.81
52469;BME280;38381;53.688;10.776;2023-08-01T21:33:49;99531.97;;;15.83;92.19
52469;BME280;38381;53.688;10.776;2023-08-01T21:38:49;99530.25;;;15.82;92.31
52469;BME280;38381;53.688;10.776;2023-08-01T21:43:50;99538.31;;;15.76;92.34
52469;BME280;38381;53.688;10.776;2023-08-01T21:48:50;99539.94;;;15.79;92.32
52469;BME280;38381;53.688;10.776;2023-08-01T21:53:51;99536.41;;;15.81;92.05
52469;BME280;38381;53.688;10.776;2023-08-01T21:58:51;99532.78;;;15.85;91.66
52469;BME280;38381;53.688;10.776;2023-08-01T22:03:52;99528.59;;;15.80;92.03
52469;BME280;38381;53.688;10.776;2023-08-01T22:08:53;99542.06;;;15.41;94.08
52469;BME280;38381;53.688;10.776;2023-08-01T22:13:53;99531.78;;;15.63;92.69
52469;BME280;38381;53.688;10.776;2023-08-01T22:18:54;99530.59;;;15.72;92.05
52469;BME280;38381;53.688;10.776;2023-08-01T22:23:54;99535.34;;;15.34;93.86
52469;BME280;38381;53.688;10.776;2023-08-01T22:28:55;99544.03;;;15.61;92.86
52469;BME280;38381;53.688;10.776;2023-08-01T22:33:55;99540.41;;;15.65;92.66
52469;BME280;38381;53.688;10.776;2023-08-01T22:38:55;99537.53;;;15.46;93.18
52469;BME280;38381;53.688;10.776;2023-08-01T22:43:57;99537.31;;;15.27;94.69
52469;BME280;38381;53.688;10.776;2023-08-01T22:48:58;99536.22;;;15.34;94.32
52469;BME280;38381;53.688;10.776;2023-08-01T22:53:58;99532.88;;;15.56;93.22
52469;BME280;38381;53.688;10.776;2023-08-01T22:58:59;99539.81;;;15.57;92.88
52469;BME280;38381;53.688;10.776;2023-08-01T23:04:00;99531.47;;;15.45;93.27
52469;BME280;38381;53.688;10.776;2023-08-01T23:09:00;99530.09;;;15.34;94.49
52469;BME280;38381;53.688;10.776;2023-08-01T23:14:04;99544.91;;;15.35;94.46
52469;BME280;38381;53.688;10.776;2023-08-01T23:19:05;99531.19;;;15.55;92.90
52469;BME280;38381;53.688;10.776;2023-08-01T23:24:05;99532.22;;;15.49;92.70
52469;BME280;38381;53.688;10.776;2023-08-01T23:29:05;99529.78;;;15.44;93.46
52469;BME280;38381;53.688;10.776;2023-08-01T23:34:06;99539.91;;;15.54;92.30
52469;BME280;38381;53.688;10.776;2023-08-01T23:39:07;99539.81;;;15.57;92.95
52469;BME280;38381;53.688;10.776;2023-08-01T23:44:08;99542.72;;;15.47;93.01
52469;BME280;38381;53.688;10.776;2023-08-01T23:49:08;99539.75;;;15.58;92.31
52469;BME280;38381;53.688;10.776;2023-08-01T23:54:08;99543.88;;;15.65;92.02
52469;BME280;38381;53.688;10.776;2023-08-01T23:59:09;99541.06;;;15.45;93.28
